createdAt,value
2023-10-12T00:01:02.312Z,96145.91
2023-10-12T00:02:16.033Z,96141.44
2023-10-12T00:03:18.333Z,96143.75
2023-10-12T00:04:20.053Z,96149.41
2023-10-12T00:05:22.153Z,96144.59
2023-10-12T00:06:26.173Z,96138.28
2023-10-12T00:07:39.561Z,96134.06
2023-10-12T00:08:41.213Z,96143.19
2023-10-12T00:09:49.782Z,96138.03
2023-10-12T00:10:55.309Z,96141.94
2023-10-12T00:11:59.445Z,96146.25
2023-10-12T00:13:01.201Z,96142.63
2023-10-12T00:14:02.862Z,96140.53
2023-10-12T00:15:23.219Z,96140.53
2023-10-12T00:16:25.515Z,96142.28
2023-10-12T00:17:28.224Z,96139.44
2023-10-12T00:18:29.854Z,96141.78
2023-10-12T00:19:31.502Z,96138.50
2023-10-12T00:20:33.013Z,96143.09
2023-10-12T00:21:37.111Z,96145.19
2023-10-12T00:22:38.846Z,96140.03
2023-10-12T00:23:40.289Z,96140.72
2023-10-12T00:24:42.255Z,96142.16
2023-10-12T00:25:49.722Z,96134.97
2023-10-12T00:26:52.079Z,96132.50
2023-10-12T00:27:53.925Z,96139.09
2023-10-12T00:28:56.931Z,96127.13
2023-10-12T00:29:58.726Z,96140.97
2023-10-12T00:31:06.631Z,96130.75
2023-10-12T00:32:09.662Z,96129.13
2023-10-12T00:33:11.201Z,96120.91
2023-10-12T00:34:13.638Z,96121.97
2023-10-12T00:35:15.586Z,96123.25
2023-10-12T00:36:23.079Z,96122.78
2023-10-12T00:37:25.079Z,96119.75
2023-10-12T00:38:30.234Z,96119.03
2023-10-12T00:39:47.643Z,96108.69
2023-10-12T00:40:52.898Z,96107.53
2023-10-12T00:41:57.064Z,96118.31
2023-10-12T00:43:01.804Z,96113.31
2023-10-12T00:44:24.497Z,96113.88
2023-10-12T00:45:30.597Z,96111.53
2023-10-12T00:46:32.158Z,96117.63
2023-10-12T00:47:45.401Z,96114.34
2023-10-12T00:48:51.241Z,96109.31
2023-10-12T00:49:52.904Z,96110.38
2023-10-12T00:50:57.600Z,96113.31
2023-10-12T00:52:23.430Z,96112.22
2023-10-12T00:53:32.566Z,96109.31
2023-10-12T00:54:38.776Z,96119.97
2023-10-12T00:55:40.253Z,96113.06
2023-10-12T00:56:44.850Z,96114.00
2023-10-12T00:57:46.514Z,96110.50
2023-10-12T00:58:48.235Z,96111.78
2023-10-12T00:59:52.642Z,96108.25
2023-10-12T01:00:54.293Z,96113.78
2023-10-12T01:01:56.447Z,96116.47
2023-10-12T01:03:16.571Z,96114.84
2023-10-12T01:04:18.180Z,96119.44
2023-10-12T01:05:23.637Z,96117.53
2023-10-12T01:06:25.173Z,96112.81
2023-10-12T01:07:26.836Z,96113.50
2023-10-12T01:08:31.581Z,96109.91
2023-10-12T01:09:40.617Z,96112.69
2023-10-12T01:10:42.378Z,96105.19
2023-10-12T01:11:45.175Z,96106.47
2023-10-12T01:12:46.710Z,96112.94
2023-10-12T01:13:50.399Z,96113.03
2023-10-12T01:14:55.700Z,96102.59
2023-10-12T01:15:57.517Z,96100.63
2023-10-12T01:16:59.718Z,96090.44
2023-10-12T01:18:01.302Z,96091.13
2023-10-12T01:19:06.868Z,96102.03
2023-10-12T01:20:13.426Z,96093.94
2023-10-12T01:21:14.923Z,96096.03
2023-10-12T01:22:17.093Z,96094.63
2023-10-12T01:23:20.015Z,96100.38
2023-10-12T01:24:30.850Z,96098.97
2023-10-12T01:25:32.700Z,96107.78
2023-10-12T01:26:34.338Z,96098.97
2023-10-12T01:27:42.408Z,96111.41
2023-10-12T01:28:50.743Z,96111.66
2023-10-12T01:29:53.416Z,96108.09
2023-10-12T01:30:55.435Z,96112.22
2023-10-12T01:32:10.081Z,96119.16
2023-10-12T01:33:11.578Z,96110.19
2023-10-12T01:34:14.921Z,96121.25
2023-10-12T01:35:18.055Z,96110.69
2023-10-12T01:36:21.391Z,96108.13
2023-10-12T01:37:28.107Z,96111.53
2023-10-12T01:38:37.891Z,96107.78
2023-10-12T01:39:52.162Z,96105.66
2023-10-12T01:40:57.531Z,96106.94
2023-10-12T01:41:58.998Z,96110.50
2023-10-12T01:43:02.393Z,96107.91
2023-10-12T01:44:11.111Z,96109.69
2023-10-12T01:45:36.140Z,96107.06
2023-10-12T01:46:44.064Z,96110.13
2023-10-12T01:47:51.912Z,96098.97
2023-10-12T01:48:53.467Z,96107.91
2023-10-12T01:49:55.196Z,96104.63
2023-10-12T01:50:57.618Z,96105.91
2023-10-12T01:51:59.217Z,96107.66
2023-10-12T01:53:08.735Z,96102.38
2023-10-12T01:54:13.533Z,96098.75
2023-10-12T01:55:20.788Z,96103.91
2023-10-12T01:56:28.224Z,96098.88
2023-10-12T01:57:38.008Z,96100.75
2023-10-12T01:58:41.871Z,96105.41
2023-10-12T01:59:43.529Z,96107.91
2023-10-12T02:00:54.746Z,96100.38
2023-10-12T02:02:09.249Z,96102.25
2023-10-12T02:03:16.577Z,96103.31
2023-10-12T02:04:18.343Z,96103.06
2023-10-12T02:05:25.953Z,96103.53
2023-10-12T02:06:30.356Z,96108.94
2023-10-12T02:07:32.195Z,96107.41
2023-10-12T02:08:41.419Z,96104.81
2023-10-12T02:09:45.257Z,96101.66
2023-10-12T02:11:19.476Z,96107.53
2023-10-12T02:12:26.513Z,96100.16
2023-10-12T02:13:33.681Z,96107.53
2023-10-12T02:14:35.263Z,96093.94
2023-10-12T02:15:36.954Z,96093.00
2023-10-12T02:16:39.475Z,96101.66
2023-10-12T02:17:43.863Z,96090.50
2023-10-12T02:18:48.483Z,96098.84
2023-10-12T02:19:50.630Z,96092.75
2023-10-12T02:21:08.789Z,96095.69
2023-10-12T02:22:30.284Z,96094.28
2023-10-12T02:23:37.600Z,96090.88
2023-10-12T02:24:43.200Z,96089.69
2023-10-12T02:25:51.889Z,96090.19
2023-10-12T02:26:53.819Z,96092.97
2023-10-12T02:27:56.333Z,96096.47
2023-10-12T02:29:12.440Z,96100.13
2023-10-12T02:30:19.504Z,96099.31
2023-10-12T02:31:29.756Z,96102.00
2023-10-12T02:32:47.477Z,96106.47
2023-10-12T02:33:49.199Z,96103.78
2023-10-12T02:34:58.538Z,96102.13
2023-10-12T02:36:00.145Z,96104.25
2023-10-12T02:37:02.269Z,96101.09
2023-10-12T02:38:16.315Z,96098.16
2023-10-12T02:39:22.166Z,96093.56
2023-10-12T02:40:23.653Z,96101.53
2023-10-12T02:41:25.908Z,96096.97
2023-10-12T02:42:39.897Z,96102.13
2023-10-12T02:43:44.741Z,96101.53
2023-10-12T02:44:56.176Z,96096.50
2023-10-12T02:46:02.926Z,96101.28
2023-10-12T02:47:13.823Z,96097.31
2023-10-12T02:48:24.412Z,96099.34
2023-10-12T02:49:26.457Z,96094.88
2023-10-12T02:50:28.831Z,96095.13
2023-10-12T02:51:32.258Z,96097.34
2023-10-12T02:52:33.774Z,96093.22
2023-10-12T02:53:36.303Z,96087.59
2023-10-12T02:54:50.292Z,96094.41
2023-10-12T02:55:52.006Z,96095.94
2023-10-12T02:56:57.588Z,96095.81
2023-10-12T02:58:07.897Z,96097.09
2023-10-12T02:59:11.156Z,96086.44
2023-10-12T03:00:17.249Z,96099.31
2023-10-12T03:01:23.377Z,96094.88
2023-10-12T03:02:33.566Z,96093.81
2023-10-12T03:03:38.572Z,96099.81
2023-10-12T03:04:41.217Z,96098.03
2023-10-12T03:05:48.812Z,96097.69
2023-10-12T03:07:10.364Z,96092.63
2023-10-12T03:08:17.892Z,96098.88
2023-10-12T03:09:19.389Z,96100.59
2023-10-12T03:10:30.565Z,96093.00
2023-10-12T03:11:33.290Z,96096.06
2023-10-12T03:12:37.176Z,96092.28
2023-10-12T03:13:43.159Z,96095.81
2023-10-12T03:14:46.423Z,96096.28
2023-10-12T03:16:00.723Z,96097.69
2023-10-12T03:17:06.505Z,96091.94
2023-10-12T03:18:12.812Z,96090.44
2023-10-12T03:19:27.035Z,96092.53
2023-10-12T03:20:30.464Z,96093.25
2023-10-12T03:21:34.905Z,96087.94
2023-10-12T03:22:36.498Z,96090.66
2023-10-12T03:23:40.006Z,96087.63
2023-10-12T03:24:52.748Z,96086.88
2023-10-12T03:25:54.571Z,96088.53
2023-10-12T03:27:12.624Z,96087.97
2023-10-12T03:28:30.702Z,96100.00
2023-10-12T03:29:33.835Z,96086.53
2023-10-12T03:30:35.866Z,96091.56
2023-10-12T03:31:54.461Z,96095.66
2023-10-12T03:32:57.952Z,96089.31
2023-10-12T03:34:00.398Z,96089.56
2023-10-12T03:35:01.976Z,96093.06
2023-10-12T03:36:24.159Z,96094.97
2023-10-12T03:37:45.715Z,96094.50
2023-10-12T03:38:59.289Z,96093.31
2023-10-12T03:40:01.120Z,96096.09
2023-10-12T03:41:21.093Z,96099.19
2023-10-12T03:42:28.208Z,96089.88
2023-10-12T03:43:29.895Z,96093.38
2023-10-12T03:44:37.323Z,96095.88
2023-10-12T03:46:01.552Z,96103.13
2023-10-12T03:47:22.794Z,96097.03
2023-10-12T03:48:45.683Z,96103.59
2023-10-12T03:49:54.353Z,96101.13
2023-10-12T03:51:12.732Z,96100.31
2023-10-12T03:52:15.713Z,96097.75
2023-10-12T03:53:21.502Z,96101.91
2023-10-12T03:54:27.860Z,96095.78
2023-10-12T03:55:29.948Z,96100.69
2023-10-12T03:56:39.647Z,96098.59
2023-10-12T03:58:01.490Z,96100.13
2023-10-12T03:59:09.676Z,96094.72
2023-10-12T04:00:11.860Z,96100.94
2023-10-12T04:01:22.019Z,96101.28
2023-10-12T04:02:25.560Z,96104.81
2023-10-12T04:03:40.699Z,96099.09
2023-10-12T04:05:16.437Z,96102.84
2023-10-12T04:06:24.356Z,96097.00
2023-10-12T04:07:45.816Z,96098.97
2023-10-12T04:08:52.536Z,96100.28
2023-10-12T04:10:01.641Z,96099.09
2023-10-12T04:11:23.293Z,96096.63
2023-10-12T04:12:32.596Z,96103.78
2023-10-12T04:13:34.490Z,96097.25
2023-10-12T04:14:45.178Z,96096.03
2023-10-12T04:16:05.415Z,96092.88
2023-10-12T04:17:16.625Z,96091.59
2023-10-12T04:18:18.020Z,96094.50
2023-10-12T04:19:30.803Z,96101.09
2023-10-12T04:20:34.877Z,96088.22
2023-10-12T04:21:57.660Z,96094.53
2023-10-12T04:23:37.088Z,96084.66
2023-10-12T04:24:44.790Z,96087.59
2023-10-12T04:25:52.270Z,96091.59
2023-10-12T04:27:23.173Z,96099.81
2023-10-12T04:28:25.132Z,96091.13
2023-10-12T04:29:31.858Z,96105.66
2023-10-12T04:30:43.329Z,96098.41
2023-10-12T04:31:47.767Z,96103.66
2023-10-12T04:32:52.145Z,96104.84
2023-10-12T04:34:07.966Z,96104.72
2023-10-12T04:35:22.258Z,96110.34
2023-10-12T04:36:44.010Z,96106.38
2023-10-12T04:37:45.508Z,96113.19
2023-10-12T04:38:57.618Z,96115.75
2023-10-12T04:40:09.855Z,96105.44
2023-10-12T04:41:24.130Z,96112.22
2023-10-12T04:42:28.568Z,96110.22
2023-10-12T04:43:30.034Z,96113.28
2023-10-12T04:44:31.510Z,96115.03
2023-10-12T04:45:54.072Z,96113.31
2023-10-12T04:47:06.588Z,96117.03
2023-10-12T04:48:19.123Z,96114.34
2023-10-12T04:49:20.611Z,96116.09
2023-10-12T04:50:28.412Z,96117.75
2023-10-12T04:51:31.992Z,96111.53
2023-10-12T04:52:34.016Z,96114.34
2023-10-12T04:53:58.278Z,96117.41
2023-10-12T04:55:08.157Z,96102.97
2023-10-12T04:56:10.840Z,96110.81
2023-10-12T04:57:14.278Z,96107.78
2023-10-12T04:58:36.072Z,96107.56
2023-10-12T04:59:51.919Z,96110.34
2023-10-12T05:01:13.721Z,96109.75
2023-10-12T05:02:23.616Z,96111.53
2023-10-12T05:03:27.126Z,96114.56
2023-10-12T05:04:50.517Z,96115.28
2023-10-12T05:05:58.637Z,96112.09
2023-10-12T05:07:18.096Z,96110.69
2023-10-12T05:08:21.319Z,96109.06
2023-10-12T05:09:22.874Z,96112.94
2023-10-12T05:10:32.993Z,96106.38
2023-10-12T05:11:34.833Z,96101.19
2023-10-12T05:12:36.527Z,96104.38
2023-10-12T05:13:45.023Z,96103.56
2023-10-12T05:14:47.448Z,96103.19
2023-10-12T05:16:08.312Z,96104.84
2023-10-12T05:17:10.115Z,96102.47
2023-10-12T05:18:12.496Z,96108.25
2023-10-12T05:19:14.046Z,96111.41
2023-10-12T05:20:19.872Z,96114.44
2023-10-12T05:21:21.367Z,96117.84
2023-10-12T05:22:22.934Z,96111.28
2023-10-12T05:23:24.581Z,96109.41
2023-10-12T05:24:26.077Z,96110.94
2023-10-12T05:25:34.279Z,96108.09
2023-10-12T05:26:36.618Z,96107.38
2023-10-12T05:27:41.568Z,96110.31
2023-10-12T05:28:56.704Z,96109.00
2023-10-12T05:30:02.325Z,96101.13
2023-10-12T05:31:10.064Z,96098.53
2023-10-12T05:32:19.897Z,96102.44
2023-10-12T05:33:34.231Z,96103.69
2023-10-12T05:34:39.666Z,96107.53
2023-10-12T05:35:51.369Z,96103.66
2023-10-12T05:36:52.842Z,96114.16
2023-10-12T05:37:57.695Z,96117.09
2023-10-12T05:39:13.331Z,96120.88
2023-10-12T05:40:17.031Z,96123.56
2023-10-12T05:41:38.626Z,96120.63
2023-10-12T05:42:41.017Z,96126.75
2023-10-12T05:43:42.564Z,96127.69
2023-10-12T05:44:44.332Z,96124.84
2023-10-12T05:45:46.398Z,96126.38
2023-10-12T05:46:52.249Z,96132.16
2023-10-12T05:47:54.419Z,96131.66
2023-10-12T05:48:56.591Z,96135.41
2023-10-12T05:49:58.463Z,96133.69
2023-10-12T05:51:00.063Z,96132.75
2023-10-12T05:52:06.026Z,96133.44
2023-10-12T05:53:08.344Z,96129.59
2023-10-12T05:54:09.830Z,96135.81
2023-10-12T05:55:20.898Z,96138.16
2023-10-12T05:56:24.422Z,96137.44
2023-10-12T05:57:31.019Z,96138.84
2023-10-12T05:58:35.127Z,96140.97
2023-10-12T05:59:39.755Z,96141.78
2023-10-12T06:00:47.718Z,96144.34
2023-10-12T06:01:52.247Z,96138.72
2023-10-12T06:02:53.930Z,96146.22
2023-10-12T06:03:58.240Z,96146.56
2023-10-12T06:04:59.987Z,96143.75
2023-10-12T06:06:01.596Z,96149.97
2023-10-12T06:07:04.397Z,96151.69
2023-10-12T06:08:06.472Z,96146.75
2023-10-12T06:09:13.049Z,96147.13
2023-10-12T06:10:14.453Z,96143.94
2023-10-12T06:11:19.183Z,96145.81
2023-10-12T06:12:22.538Z,96141.81
2023-10-12T06:13:31.558Z,96137.66
2023-10-12T06:14:34.846Z,96148.03
2023-10-12T06:15:54.293Z,96137.09
2023-10-12T06:16:57.267Z,96142.00
2023-10-12T06:17:59.299Z,96139.31
2023-10-12T06:19:01.689Z,96137.94
2023-10-12T06:20:12.611Z,96140.09
2023-10-12T06:21:18.676Z,96136.88
2023-10-12T06:22:33.287Z,96140.25
2023-10-12T06:23:40.716Z,96153.41
2023-10-12T06:24:45.749Z,96149.88
2023-10-12T06:26:00.665Z,96150.81
2023-10-12T06:27:23.736Z,96147.97
2023-10-12T06:28:28.762Z,96144.19
2023-10-12T06:29:31.337Z,96142.41
2023-10-12T06:30:33.126Z,96131.50
2023-10-12T06:31:35.088Z,96134.56
2023-10-12T06:32:40.625Z,96138.41
2023-10-12T06:33:43.056Z,96128.75
2023-10-12T06:34:45.332Z,96135.50
2023-10-12T06:36:00.410Z,96129.78
2023-10-12T06:37:21.842Z,96128.31
2023-10-12T06:38:37.441Z,96128.16
2023-10-12T06:40:01.718Z,96134.31
2023-10-12T06:41:27.178Z,96134.88
2023-10-12T06:42:30.823Z,96136.53
2023-10-12T06:43:32.294Z,96133.56
2023-10-12T06:44:34.650Z,96131.78
2023-10-12T06:45:48.033Z,96128.66
2023-10-12T06:47:23.338Z,96137.34
2023-10-12T06:48:29.629Z,96138.41
2023-10-12T06:49:33.614Z,96142.50
2023-10-12T06:50:38.609Z,96134.38
2023-10-12T06:51:40.149Z,96137.50
2023-10-12T06:52:43.625Z,96133.56
2023-10-12T06:53:53.307Z,96134.78
2023-10-12T06:55:00.769Z,96138.88
2023-10-12T06:56:17.387Z,96138.25
2023-10-12T06:57:19.395Z,96138.88
2023-10-12T06:58:21.629Z,96141.34
2023-10-12T06:59:29.214Z,96134.63
2023-10-12T07:00:35.407Z,96143.63
2023-10-12T07:01:51.106Z,96148.06
2023-10-12T07:02:53.592Z,96140.50
2023-10-12T07:03:55.233Z,96148.47
2023-10-12T07:04:58.547Z,96136.66
2023-10-12T07:06:00.740Z,96144.06
2023-10-12T07:07:08.468Z,96149.22
2023-10-12T07:08:16.755Z,96156.28
2023-10-12T07:09:28.318Z,96153.81
2023-10-12T07:10:29.906Z,96158.38
2023-10-12T07:11:31.824Z,96153.69
2023-10-12T07:12:35.204Z,96159.63
2023-10-12T07:13:40.758Z,96165.69
2023-10-12T07:14:54.121Z,96166.50
2023-10-12T07:15:55.962Z,96173.72
2023-10-12T07:16:58.482Z,96166.41
2023-10-12T07:18:06.992Z,96174.78
2023-10-12T07:20:28.704Z,96180.63
2023-10-12T07:21:30.121Z,96186.31
2023-10-12T07:22:37.747Z,96179.63
2023-10-12T07:23:44.670Z,96181.94
2023-10-12T07:24:47.607Z,96182.91
2023-10-12T07:25:50.574Z,96184.00
2023-10-12T07:26:52.272Z,96193.50
2023-10-12T07:28:00.613Z,96189.00
2023-10-12T07:29:08.993Z,96195.13
2023-10-12T07:30:31.708Z,96186.81
2023-10-12T07:31:42.585Z,96195.63
2023-10-12T07:32:56.342Z,96193.06
2023-10-12T07:33:58.303Z,96188.81
2023-10-12T07:35:07.843Z,96194.41
2023-10-12T07:36:12.329Z,96190.66
2023-10-12T07:37:15.036Z,96184.47
2023-10-12T07:38:36.281Z,96196.84
2023-10-12T07:39:43.808Z,96191.69
2023-10-12T07:41:01.828Z,96183.03
2023-10-12T07:42:03.943Z,96195.91
2023-10-12T07:43:07.770Z,96189.13
2023-10-12T07:44:09.347Z,96178.22
2023-10-12T07:45:15.882Z,96181.84
2023-10-12T07:46:26.367Z,96176.75
2023-10-12T07:47:41.595Z,96168.78
2023-10-12T07:48:45.245Z,96164.59
2023-10-12T07:49:52.580Z,96165.91
2023-10-12T07:50:54.268Z,96182.34
2023-10-12T07:52:16.064Z,96182.91
2023-10-12T07:53:25.200Z,96185.78
2023-10-12T07:54:46.705Z,96191.47
2023-10-12T07:55:54.724Z,96194.41
2023-10-12T07:56:56.239Z,96185.53
2023-10-12T07:57:58.169Z,96183.00
2023-10-12T07:58:59.829Z,96186.69
2023-10-12T08:00:20.120Z,96190.31
2023-10-12T08:01:40.070Z,96193.03
2023-10-12T08:02:48.904Z,96192.19
2023-10-12T08:03:53.676Z,96188.41
2023-10-12T08:04:59.760Z,96195.28
2023-10-12T08:06:08.383Z,96194.88
2023-10-12T08:07:09.996Z,96193.41
2023-10-12T08:08:34.596Z,96190.56
2023-10-12T08:09:48.588Z,96178.47
2023-10-12T08:10:57.621Z,96183.75
2023-10-12T08:11:59.990Z,96183.91
2023-10-12T08:13:05.603Z,96183.31
2023-10-12T08:14:39.412Z,96182.59
2023-10-12T08:15:51.110Z,96175.16
2023-10-12T08:17:31.709Z,96176.34
2023-10-12T08:18:53.024Z,96184.31
2023-10-12T08:20:17.329Z,96182.91
2023-10-12T08:21:31.694Z,96182.84
2023-10-12T08:22:34.111Z,96184.81
2023-10-12T08:23:36.744Z,96181.88
2023-10-12T08:24:38.661Z,96177.84
2023-10-12T08:25:40.417Z,96178.16
2023-10-12T08:26:43.118Z,96177.34
2023-10-12T08:27:55.819Z,96175.47
2023-10-12T08:28:58.376Z,96180.31
2023-10-12T08:30:20.891Z,96183.56
2023-10-12T08:31:28.935Z,96179.41
2023-10-12T08:32:31.400Z,96191.28
2023-10-12T08:33:59.046Z,96187.13
2023-10-12T08:35:00.575Z,96190.03
2023-10-12T08:36:16.977Z,96192.53
2023-10-12T08:37:21.117Z,96199.09
2023-10-12T08:38:34.085Z,96189.22
2023-10-12T08:39:53.853Z,96183.16
2023-10-12T08:41:13.972Z,96192.28
2023-10-12T08:42:34.443Z,96197.94
2023-10-12T08:43:45.058Z,96197.94
2023-10-12T08:44:48.140Z,96192.19
2023-10-12T08:45:54.246Z,96192.44
2023-10-12T08:47:08.747Z,96192.94
2023-10-12T08:48:11.142Z,96196.78
2023-10-12T08:49:31.345Z,96191.94
2023-10-12T08:50:51.008Z,96197.44
2023-10-12T08:52:07.804Z,96194.09
2023-10-12T08:53:14.532Z,96188.50
2023-10-12T08:54:18.342Z,96193.59
2023-10-12T08:55:26.762Z,96193.50
2023-10-12T08:56:33.781Z,96187.94
2023-10-12T08:57:56.764Z,96192.66
2023-10-12T08:59:02.000Z,96192.50
2023-10-12T09:00:40.245Z,96184.72
2023-10-12T09:01:43.735Z,96189.78
2023-10-12T09:02:50.468Z,96185.69
2023-10-12T09:04:02.312Z,96200.78
2023-10-12T09:05:05.748Z,96188.00
2023-10-12T09:06:25.940Z,96195.56
2023-10-12T09:07:39.237Z,96195.31
2023-10-12T09:08:40.758Z,96201.63
2023-10-12T09:09:56.296Z,96198.34
2023-10-12T09:11:03.939Z,96197.59
2023-10-12T09:12:12.385Z,96196.44
2023-10-12T09:13:18.204Z,96200.66
2023-10-12T09:14:24.781Z,96207.84
2023-10-12T09:15:30.582Z,96212.22
2023-10-12T09:16:32.183Z,96208.25
2023-10-12T09:17:34.196Z,96214.75
2023-10-12T09:18:48.159Z,96204.09
2023-10-12T09:19:50.475Z,96214.00
2023-10-12T09:21:01.656Z,96215.38
2023-10-12T09:22:04.525Z,96201.19
2023-10-12T09:23:13.476Z,96203.69
2023-10-12T09:24:29.313Z,96205.13
2023-10-12T09:25:54.374Z,96198.44
2023-10-12T09:27:12.572Z,96205.75
2023-10-12T09:28:15.886Z,96208.75
2023-10-12T09:29:32.444Z,96206.56
2023-10-12T09:30:36.718Z,96209.91
2023-10-12T09:31:41.994Z,96214.78
2023-10-12T09:32:58.236Z,96220.09
2023-10-12T09:34:01.188Z,96221.31
2023-10-12T09:35:12.548Z,96218.69
2023-10-12T09:36:14.503Z,96225.91
2023-10-12T09:37:19.704Z,96226.06
2023-10-12T09:38:21.179Z,96226.25
2023-10-12T09:39:28.381Z,96224.19
2023-10-12T09:40:43.933Z,96221.19
2023-10-12T09:41:59.498Z,96215.78
2023-10-12T09:43:07.552Z,96213.97
2023-10-12T09:44:13.001Z,96214.78
2023-10-12T09:45:25.618Z,96212.13
2023-10-12T09:46:36.749Z,96209.19
2023-10-12T09:47:51.702Z,96206.13
2023-10-12T09:49:00.031Z,96209.72
2023-10-12T09:50:14.094Z,96205.88
2023-10-12T09:51:16.856Z,96204.00
2023-10-12T09:52:23.141Z,96213.28
2023-10-12T09:53:38.107Z,96210.88
2023-10-12T09:54:49.868Z,96211.00
2023-10-12T09:56:12.629Z,96215.09
2023-10-12T09:57:24.774Z,96201.56
2023-10-12T09:58:26.536Z,96205.75
2023-10-12T09:59:32.018Z,96203.44
2023-10-12T10:00:52.628Z,96204.75
2023-10-12T10:02:02.719Z,96206.22
2023-10-12T10:03:04.842Z,96206.28
2023-10-12T10:04:39.207Z,96203.00
2023-10-12T10:05:53.807Z,96205.44
2023-10-12T10:07:26.480Z,96213.97
2023-10-12T10:08:30.562Z,96218.31
2023-10-12T10:09:32.439Z,96216.81
2023-10-12T10:10:35.501Z,96211.78
2023-10-12T10:11:39.169Z,96217.75
2023-10-12T10:12:43.865Z,96212.00
2023-10-12T10:13:50.477Z,96209.81
2023-10-12T10:15:01.140Z,96200.53
2023-10-12T10:16:09.336Z,96204.56
2023-10-12T10:17:16.864Z,96206.91
2023-10-12T10:18:20.733Z,96202.75
2023-10-12T10:19:24.956Z,96203.44
2023-10-12T10:20:27.796Z,96205.09
2023-10-12T10:21:32.453Z,96205.50
2023-10-12T10:22:38.490Z,96209.28
2023-10-12T10:23:49.666Z,96214.03
2023-10-12T10:24:57.108Z,96218.97
2023-10-12T10:26:17.318Z,96223.97
2023-10-12T10:27:19.784Z,96220.66
2023-10-12T10:28:28.961Z,96217.69
2023-10-12T10:29:46.041Z,96225.88
2023-10-12T10:30:54.320Z,96228.59
2023-10-12T10:31:56.006Z,96225.13
2023-10-12T10:33:14.068Z,96234.41
2023-10-12T10:34:24.376Z,96229.63
2023-10-12T10:35:57.792Z,96226.47
2023-10-12T10:36:59.456Z,96223.53
2023-10-12T10:38:01.042Z,96229.41
2023-10-12T10:39:29.979Z,96234.63
2023-10-12T10:40:48.856Z,96235.75
2023-10-12T10:41:57.648Z,96238.66
2023-10-12T10:43:05.957Z,96238.41
2023-10-12T10:44:16.597Z,96231.75
2023-10-12T10:45:20.346Z,96232.75
2023-10-12T10:46:27.778Z,96228.19
2023-10-12T10:47:35.961Z,96224.69
2023-10-12T10:49:50.028Z,96227.66
2023-10-12T10:50:52.401Z,96234.88
2023-10-12T10:52:04.038Z,96225.47
2023-10-12T10:53:09.433Z,96232.34
2023-10-12T10:54:19.472Z,96225.97
2023-10-12T10:55:25.298Z,96228.31
2023-10-12T10:56:42.726Z,96230.06
2023-10-12T10:57:44.194Z,96235.44
2023-10-12T10:58:47.251Z,96224.41
2023-10-12T10:59:48.838Z,96228.38
2023-10-12T11:00:57.698Z,96233.00
2023-10-12T11:02:00.682Z,96221.28
2023-10-12T11:03:04.718Z,96225.94
2023-10-12T11:04:10.770Z,96217.31
2023-10-12T11:05:20.562Z,96223.88
2023-10-12T11:06:25.333Z,96221.47
2023-10-12T11:07:27.230Z,96222.53
2023-10-12T11:08:28.999Z,96228.22
2023-10-12T11:09:55.448Z,96223.84
2023-10-12T11:11:09.523Z,96226.84
2023-10-12T11:12:12.000Z,96221.56
2023-10-12T11:13:18.817Z,96217.31
2023-10-12T11:14:23.210Z,96209.16
2023-10-12T11:15:25.228Z,96206.25
2023-10-12T11:16:30.973Z,96206.88
2023-10-12T11:17:41.986Z,96208.88
2023-10-12T11:18:44.114Z,96211.56
2023-10-12T11:19:45.614Z,96208.53
2023-10-12T11:20:58.544Z,96206.94
2023-10-12T11:22:00.690Z,96205.16
2023-10-12T11:23:08.889Z,96211.59
2023-10-12T11:24:10.915Z,96201.84
2023-10-12T11:25:13.692Z,96208.19
2023-10-12T11:26:21.922Z,96199.22
2023-10-12T11:27:30.588Z,96206.81
2023-10-12T11:28:34.767Z,96209.84
2023-10-12T11:29:51.169Z,96200.56
2023-10-12T11:30:55.349Z,96199.66
2023-10-12T11:32:12.474Z,96194.47
2023-10-12T11:33:14.453Z,96196.38
2023-10-12T11:34:24.694Z,96199.09
2023-10-12T11:35:45.488Z,96201.38
2023-10-12T11:36:47.134Z,96197.84
2023-10-12T11:37:48.941Z,96190.56
2023-10-12T11:39:05.488Z,96199.66
2023-10-12T11:40:08.657Z,96203.22
2023-10-12T11:41:14.883Z,96205.22
2023-10-12T11:42:16.447Z,96203.28
2023-10-12T11:43:18.060Z,96201.19
2023-10-12T11:44:32.318Z,96199.59
2023-10-12T11:45:36.393Z,96210.19
2023-10-12T11:46:47.368Z,96210.81
2023-10-12T11:47:51.417Z,96210.25
2023-10-12T11:49:09.407Z,96211.06
2023-10-12T11:50:12.662Z,96207.81
2023-10-12T11:51:14.243Z,96206.19
2023-10-12T11:52:23.032Z,96208.16
2023-10-12T11:53:26.563Z,96198.69
2023-10-12T11:54:34.397Z,96198.41
2023-10-12T11:55:35.833Z,96191.88
2023-10-12T11:56:44.889Z,96196.75
2023-10-12T11:57:55.599Z,96192.97
2023-10-12T11:58:58.462Z,96200.31
2023-10-12T12:00:00.194Z,96204.41
2023-10-12T12:01:01.945Z,96200.03
2023-10-12T12:02:09.860Z,96200.56
2023-10-12T12:03:12.240Z,96197.03
2023-10-12T12:04:24.497Z,96198.97
2023-10-12T12:05:34.328Z,96195.41
2023-10-12T12:06:35.937Z,96191.56
2023-10-12T12:07:37.520Z,96194.28
2023-10-12T12:08:39.285Z,96194.03
2023-10-12T12:09:41.658Z,96188.84
2023-10-12T12:10:46.751Z,96193.44
2023-10-12T12:11:48.354Z,96189.63
2023-10-12T12:12:53.199Z,96189.06
2023-10-12T12:13:54.719Z,96189.06
2023-10-12T12:14:56.181Z,96177.38
2023-10-12T12:15:57.933Z,96189.84
2023-10-12T12:16:59.464Z,96190.63
2023-10-12T12:18:01.161Z,96190.41
2023-10-12T12:19:02.897Z,96188.00
2023-10-12T12:20:08.707Z,96189.91
2023-10-12T12:21:15.866Z,96184.22
2023-10-12T12:22:17.443Z,96188.59
2023-10-12T12:23:20.610Z,96197.31
2023-10-12T12:24:25.339Z,96192.13
2023-10-12T12:25:39.846Z,96190.22
2023-10-12T12:26:46.906Z,96186.97
2023-10-12T12:27:50.616Z,96185.28
2023-10-12T12:29:04.686Z,96179.84
2023-10-12T12:31:16.243Z,96189.63
2023-10-12T12:32:19.553Z,96179.28
2023-10-12T12:33:21.349Z,96187.69
2023-10-12T12:34:39.277Z,96185.81
2023-10-12T12:35:41.975Z,96185.00
2023-10-12T12:36:43.461Z,96180.91
2023-10-12T12:37:44.909Z,96181.72
2023-10-12T12:38:48.724Z,96180.63
2023-10-12T12:40:15.720Z,96187.97
2023-10-12T12:41:19.908Z,96187.94
2023-10-12T12:42:21.498Z,96188.47
2023-10-12T12:43:23.250Z,96181.91
2023-10-12T12:44:24.775Z,96189.84
2023-10-12T12:45:26.258Z,96190.09
2023-10-12T12:46:27.966Z,96183.84
2023-10-12T12:47:33.601Z,96185.72
2023-10-12T12:48:35.142Z,96182.72
2023-10-12T12:49:36.596Z,96181.66
2023-10-12T12:50:38.112Z,96178.91
2023-10-12T12:51:40.052Z,96178.63
2023-10-12T12:52:47.763Z,96174.81
2023-10-12T12:53:51.471Z,96171.56
2023-10-12T12:54:53.054Z,96167.75
2023-10-12T12:55:55.051Z,96173.72
2023-10-12T12:56:56.582Z,96174.03
2023-10-12T12:57:58.103Z,96174.63
2023-10-12T12:59:00.424Z,96174.84
2023-10-12T13:00:08.654Z,96172.09
2023-10-12T13:01:11.667Z,96168.00
2023-10-12T13:02:15.545Z,96164.78
2023-10-12T13:03:17.938Z,96169.94
2023-10-12T13:04:20.616Z,96161.75
2023-10-12T13:05:22.542Z,96165.28
2023-10-12T13:06:27.497Z,96162.78
2023-10-12T13:07:29.473Z,96163.13
2023-10-12T13:08:31.524Z,96157.94
2023-10-12T13:09:35.290Z,96154.06
2023-10-12T13:10:37.168Z,96152.69
2023-10-12T13:11:38.618Z,96162.47
2023-10-12T13:12:45.852Z,96154.84
2023-10-12T13:13:49.723Z,96157.03
2023-10-12T13:14:51.213Z,96156.78
2023-10-12T13:15:52.727Z,96151.09
2023-10-12T13:16:54.305Z,96142.91
2023-10-12T13:17:58.857Z,96143.44
2023-10-12T13:19:02.350Z,96139.91